createdAt,value
2024-02-29T00:00:36.517Z,1014.56
2024-02-29T00:01:36.249Z,1014.55
2024-02-29T00:02:35.930Z,1014.53
2024-02-29T00:03:58.350Z,1014.57
2024-02-29T00:04:36.076Z,1014.53
2024-02-29T00:05:36.333Z,1014.53
2024-02-29T00:06:36.108Z,1014.54
2024-02-29T00:07:36.317Z,1014.50
2024-02-29T00:08:36.065Z,1014.46
2024-02-29T00:09:36.406Z,1014.47
2024-02-29T00:10:36.074Z,1014.46
2024-02-29T00:11:35.806Z,1014.46
2024-02-29T00:12:42.392Z,1014.40
2024-02-29T00:13:58.098Z,1014.41
2024-02-29T00:14:35.924Z,1014.40
2024-02-29T00:15:36.219Z,1014.33
2024-02-29T00:16:35.955Z,1014.35
2024-02-29T00:17:36.204Z,1014.34
2024-02-29T00:18:35.971Z,1014.34
2024-02-29T00:19:36.185Z,1014.31
2024-02-29T00:20:35.964Z,1014.31
2024-02-29T00:21:37.215Z,1014.30
2024-02-29T00:22:35.933Z,1014.34
2024-02-29T00:23:57.020Z,1014.26
2024-02-29T00:24:36.132Z,1014.31
2024-02-29T00:25:35.852Z,1014.29
2024-02-29T00:26:36.113Z,1014.31
2024-02-29T00:27:35.952Z,1014.30
2024-02-29T00:28:36.114Z,1014.26
2024-02-29T00:29:35.854Z,1014.24
2024-02-29T00:30:36.195Z,1014.25
2024-02-29T00:31:35.859Z,1014.25
2024-02-29T00:32:35.641Z,1014.21
2024-02-29T00:33:57.919Z,1014.22
2024-02-29T00:34:45.456Z,1014.19
2024-02-29T00:35:35.728Z,1014.15
2024-02-29T00:36:36.069Z,1014.14
2024-02-29T00:37:35.769Z,1014.15
2024-02-29T00:38:35.971Z,1014.08
2024-02-29T00:39:35.741Z,1014.13
2024-02-29T00:40:36.340Z,1014.04
2024-02-29T00:41:35.712Z,1014.02
2024-02-29T00:42:36.903Z,1014.05
2024-02-29T00:43:57.768Z,1014.01
2024-02-29T00:44:35.567Z,1014.04
2024-02-29T00:45:35.887Z,1014.03
2024-02-29T00:46:36.117Z,1014.00
2024-02-29T00:47:35.873Z,1014.06
2024-02-29T00:48:35.604Z,1014.01
2024-02-29T00:49:35.825Z,1014.00
2024-02-29T00:50:35.611Z,1013.98
2024-02-29T00:51:35.953Z,1013.94
2024-02-29T00:52:35.596Z,1013.95
2024-02-29T00:53:55.852Z,1013.96
2024-02-29T00:54:35.677Z,1013.95
2024-02-29T00:55:35.829Z,1013.93
2024-02-29T00:56:35.600Z,1013.95
2024-02-29T00:57:35.870Z,1013.86
2024-02-29T00:58:35.606Z,1013.88
2024-02-29T00:59:35.374Z,1013.90
2024-02-29T01:00:35.769Z,1013.86
2024-02-29T01:01:35.459Z,1013.85
2024-02-29T01:02:35.646Z,1013.86
2024-02-29T01:03:56.632Z,1013.80
2024-02-29T01:04:35.638Z,1013.83
2024-02-29T01:05:35.389Z,1013.80
2024-02-29T01:06:35.647Z,1013.79
2024-02-29T01:07:35.366Z,1013.74
2024-02-29T01:08:35.657Z,1013.74
2024-02-29T01:09:35.900Z,1013.74
2024-02-29T01:10:35.625Z,1013.72
2024-02-29T01:11:35.358Z,1013.71
2024-02-29T01:12:35.623Z,1013.69
2024-02-29T01:13:55.355Z,1013.74
2024-02-29T01:14:35.612Z,1013.61
2024-02-29T01:15:35.426Z,1013.64
2024-02-29T01:16:35.654Z,1013.63
2024-02-29T01:17:35.425Z,1013.58
2024-02-29T01:18:35.179Z,1013.68
2024-02-29T01:19:35.462Z,1013.67
2024-02-29T01:20:35.161Z,1013.61
2024-02-29T01:21:35.475Z,1013.66
2024-02-29T01:22:35.173Z,1013.56
2024-02-29T01:23:55.409Z,1013.65
2024-02-29T01:24:35.198Z,1013.62
2024-02-29T01:25:35.422Z,1013.57
2024-02-29T01:26:35.278Z,1013.62
2024-02-29T01:27:35.469Z,1013.60
2024-02-29T01:28:35.156Z,1013.59
2024-02-29T01:29:35.402Z,1013.63
2024-02-29T01:30:35.223Z,1013.58
2024-02-29T01:31:35.421Z,1013.61
2024-02-29T01:32:37.679Z,1013.54
2024-02-29T01:33:56.146Z,1013.52
2024-02-29T01:34:35.247Z,1013.58
2024-02-29T01:35:35.011Z,1013.53
2024-02-29T01:36:35.283Z,1013.51
2024-02-29T01:37:40.347Z,1013.50
2024-02-29T01:38:35.130Z,1013.46
2024-02-29T01:39:35.414Z,1013.42
2024-02-29T01:40:35.130Z,1013.44
2024-02-29T01:41:35.378Z,1013.41
2024-02-29T01:42:35.146Z,1013.40
2024-02-29T01:43:57.478Z,1013.30
2024-02-29T01:44:35.260Z,1013.35
2024-02-29T01:45:35.030Z,1013.32
2024-02-29T01:46:35.251Z,1013.32
2024-02-29T01:47:35.053Z,1013.31
2024-02-29T01:48:35.271Z,1013.27
2024-02-29T01:49:34.994Z,1013.32
2024-02-29T01:50:35.264Z,1013.30
2024-02-29T01:51:35.036Z,1013.30
2024-02-29T01:52:35.273Z,1013.31
2024-02-29T01:53:57.032Z,1013.25
2024-02-29T01:54:34.840Z,1013.24
2024-02-29T01:55:35.113Z,1013.23
2024-02-29T01:56:34.802Z,1013.22
2024-02-29T01:57:35.096Z,1013.26
2024-02-29T01:58:34.790Z,1013.16
2024-02-29T01:59:35.061Z,1013.19
2024-02-29T02:00:34.836Z,1013.16
2024-02-29T02:01:35.172Z,1013.15
2024-02-29T02:02:34.771Z,1013.12
2024-02-29T02:03:55.610Z,1013.08
2024-02-29T02:04:34.872Z,1013.07
2024-02-29T02:05:35.126Z,1013.11
2024-02-29T02:06:34.983Z,1013.06
2024-02-29T02:07:35.129Z,1013.04
2024-02-29T02:08:34.878Z,1013.01
2024-02-29T02:09:35.149Z,1013.02
2024-02-29T02:10:34.896Z,1012.95
2024-02-29T02:11:34.654Z,1012.98
2024-02-29T02:12:34.889Z,1012.91
2024-02-29T02:13:56.660Z,1012.94
2024-02-29T02:14:34.947Z,1012.93
2024-02-29T02:15:34.734Z,1012.89
2024-02-29T02:16:34.948Z,1012.85
2024-02-29T02:17:34.882Z,1012.86
2024-02-29T02:18:34.996Z,1012.85
2024-02-29T02:19:34.719Z,1012.86
2024-02-29T02:20:42.284Z,1012.82
2024-02-29T02:21:34.587Z,1012.84
2024-02-29T02:22:34.802Z,1012.83
2024-02-29T02:23:56.061Z,1012.77
2024-02-29T02:24:34.927Z,1012.76
2024-02-29T02:25:34.637Z,1012.79
2024-02-29T02:26:34.872Z,1012.74
2024-02-29T02:27:34.718Z,1012.75
2024-02-29T02:28:34.886Z,1012.70
2024-02-29T02:29:34.644Z,1012.74
2024-02-29T02:30:34.933Z,1012.63
2024-02-29T02:31:34.652Z,1012.68
2024-02-29T02:32:34.914Z,1012.69
2024-02-29T02:33:55.391Z,1012.64
2024-02-29T02:34:34.656Z,1012.60
2024-02-29T02:35:35.320Z,1012.62
2024-02-29T02:36:36.247Z,1012.60
2024-02-29T02:37:35.089Z,1012.55
2024-02-29T02:38:35.111Z,1012.57
2024-02-29T02:39:35.791Z,1012.53
2024-02-29T02:40:36.760Z,1012.45
2024-02-29T02:41:36.571Z,1012.46
2024-02-29T02:42:36.384Z,1012.45
2024-02-29T02:45:11.056Z,1012.46
2024-02-29T02:46:10.572Z,1012.38
2024-02-29T02:47:10.733Z,1012.35
2024-02-29T02:48:10.616Z,1012.41
2024-02-29T02:49:12.204Z,1012.32
2024-02-29T02:50:17.839Z,1012.38
2024-02-29T02:51:12.537Z,1012.34
2024-02-29T02:52:10.504Z,1012.27
2024-02-29T02:53:12.012Z,1012.29
2024-02-29T02:54:31.360Z,1012.23
2024-02-29T02:55:10.756Z,1012.21
2024-02-29T02:56:10.388Z,1012.18
2024-02-29T02:57:10.621Z,1012.18
2024-02-29T02:58:10.555Z,1012.14
2024-02-29T02:59:12.564Z,1012.19
2024-02-29T03:00:10.513Z,1012.11
2024-02-29T03:01:10.174Z,1012.12
2024-02-29T03:02:10.504Z,1012.09
2024-02-29T03:03:10.123Z,1012.05
2024-02-29T03:04:31.087Z,1012.04
2024-02-29T03:05:10.337Z,1012.02
2024-02-29T03:06:11.316Z,1012.03
2024-02-29T03:07:10.231Z,1012.03
2024-02-29T03:08:10.444Z,1011.96
2024-02-29T03:09:10.185Z,1011.98
2024-02-29T03:10:10.691Z,1011.94
2024-02-29T03:11:10.241Z,1011.91
2024-02-29T03:12:12.367Z,1011.86
2024-02-29T03:13:10.302Z,1011.86
2024-02-29T03:14:32.461Z,1011.87
2024-02-29T03:15:10.256Z,1011.84
2024-02-29T03:16:12.018Z,1011.93
2024-02-29T03:17:10.257Z,1011.79
2024-02-29T03:18:18.247Z,1011.77
2024-02-29T03:19:11.612Z,1011.76
2024-02-29T03:20:10.351Z,1011.77
2024-02-29T03:21:10.107Z,1011.76
2024-02-29T03:22:10.633Z,1011.71
2024-02-29T03:23:10.106Z,1011.72
2024-02-29T03:24:30.357Z,1011.73
2024-02-29T03:25:10.230Z,1011.72
2024-02-29T03:26:10.329Z,1011.69
2024-02-29T03:27:10.152Z,1011.68
2024-02-29T03:28:10.353Z,1011.66
2024-02-29T03:29:12.041Z,1011.62
2024-02-29T03:30:09.830Z,1011.60
2024-02-29T03:31:10.169Z,1011.60
2024-02-29T03:32:09.843Z,1011.61
2024-02-29T03:33:12.135Z,1011.59
2024-02-29T03:34:30.884Z,1011.53
2024-02-29T03:35:10.210Z,1011.62
2024-02-29T03:36:09.960Z,1011.55
2024-02-29T03:37:10.223Z,1011.52
2024-02-29T03:38:10.192Z,1011.50
2024-02-29T03:39:10.211Z,1011.49
2024-02-29T03:40:09.964Z,1011.50
2024-02-29T03:41:12.125Z,1011.46
2024-02-29T03:42:09.918Z,1011.44
2024-02-29T03:43:10.248Z,1011.39
2024-02-29T03:44:29.936Z,1011.41
2024-02-29T03:45:10.229Z,1011.38
2024-02-29T03:46:11.986Z,1011.41
2024-02-29T03:47:09.694Z,1011.34
2024-02-29T03:48:10.391Z,1011.39
2024-02-29T03:49:10.648Z,1011.37
2024-02-29T03:50:09.918Z,1011.41
2024-02-29T03:51:10.166Z,1011.38
2024-02-29T03:52:09.980Z,1011.36
2024-02-29T03:53:09.671Z,1011.33
2024-02-29T03:54:35.251Z,1011.32
2024-02-29T03:55:09.983Z,1011.35
2024-02-29T03:56:09.703Z,1011.29
2024-02-29T03:57:11.901Z,1011.28
2024-02-29T03:58:09.791Z,1011.28
2024-02-29T03:59:09.967Z,1011.24
2024-02-29T04:00:09.757Z,1011.27
2024-02-29T04:01:10.122Z,1011.28
2024-02-29T04:02:09.811Z,1011.26
2024-02-29T04:03:09.999Z,1011.35
2024-02-29T04:04:29.764Z,1011.27
2024-02-29T04:05:10.044Z,1011.28
2024-02-29T04:06:10.113Z,1011.27
2024-02-29T04:07:09.510Z,1011.24
2024-02-29T04:08:11.674Z,1011.26
2024-02-29T04:09:09.969Z,1011.29
2024-02-29T04:10:09.818Z,1011.24
2024-02-29T04:11:09.503Z,1011.24
2024-02-29T04:12:09.707Z,1011.22
2024-02-29T04:13:11.476Z,1011.21
2024-02-29T04:14:29.821Z,1011.16
2024-02-29T04:15:11.459Z,1011.25
2024-02-29T04:16:09.776Z,1011.22
2024-02-29T04:17:09.510Z,1011.26
2024-02-29T04:18:09.794Z,1011.23
2024-02-29T04:19:11.112Z,1011.31
2024-02-29T04:20:10.152Z,1011.28
2024-02-29T04:21:09.580Z,1011.26
2024-02-29T04:22:09.875Z,1011.26
2024-02-29T04:23:09.550Z,1011.21
2024-02-29T04:24:29.824Z,1011.25
2024-02-29T04:25:09.597Z,1011.19
2024-02-29T04:26:11.764Z,1011.22
2024-02-29T04:27:11.514Z,1011.19
2024-02-29T04:28:09.324Z,1011.22
2024-02-29T04:29:09.570Z,1011.15
2024-02-29T04:30:09.317Z,1011.20
2024-02-29T04:31:11.550Z,1011.19
2024-02-29T04:32:09.330Z,1011.14
2024-02-29T04:33:09.608Z,1011.11
2024-02-29T04:34:29.366Z,1011.15
2024-02-29T04:35:09.572Z,1011.15
2024-02-29T04:36:09.557Z,1011.09
2024-02-29T04:37:09.677Z,1011.13
2024-02-29T04:38:10.257Z,1011.14
2024-02-29T04:39:09.561Z,1011.14
2024-02-29T04:40:11.146Z,1011.08
2024-02-29T04:41:09.540Z,1011.07
2024-02-29T04:42:09.310Z,1011.04
2024-02-29T04:43:09.615Z,1011.05
2024-02-29T04:44:29.340Z,1011.00
2024-02-29T04:45:09.121Z,1011.05
2024-02-29T04:46:09.635Z,1011.00
2024-02-29T04:47:09.080Z,1010.99
2024-02-29T04:48:09.368Z,1010.94
2024-02-29T04:49:09.184Z,1010.95
2024-02-29T04:50:10.291Z,1010.95
2024-02-29T04:51:09.072Z,1010.95
2024-02-29T04:52:09.422Z,1010.85
2024-02-29T04:53:09.074Z,1010.93
2024-02-29T04:54:29.330Z,1010.84
2024-02-29T04:55:09.139Z,1010.86
2024-02-29T04:56:10.159Z,1010.83
2024-02-29T04:57:11.054Z,1010.83
2024-02-29T04:58:11.303Z,1010.83
2024-02-29T04:59:10.201Z,1010.73
2024-02-29T05:00:09.401Z,1010.78
2024-02-29T05:01:10.174Z,1010.80
2024-02-29T05:02:11.364Z,1010.79
2024-02-29T05:03:09.148Z,1010.73
2024-02-29T05:04:29.404Z,1010.71
2024-02-29T05:05:09.209Z,1010.69
2024-02-29T05:06:08.904Z,1010.73
2024-02-29T05:07:09.196Z,1010.68
2024-02-29T05:08:08.888Z,1010.70
2024-02-29T05:09:09.162Z,1010.57
2024-02-29T05:10:09.275Z,1010.57
2024-02-29T05:11:09.181Z,1010.60
2024-02-29T05:12:08.904Z,1010.55
2024-02-29T05:13:11.257Z,1010.55
2024-02-29T05:14:28.950Z,1010.60
2024-02-29T05:15:09.242Z,1010.53
2024-02-29T05:16:09.113Z,1010.54
2024-02-29T05:17:11.688Z,1010.51
2024-02-29T05:18:10.447Z,1010.53
2024-02-29T05:19:09.318Z,1010.51
2024-02-29T05:20:09.943Z,1010.53
2024-02-29T05:21:08.747Z,1010.49
2024-02-29T05:22:09.051Z,1010.47
2024-02-29T05:23:08.756Z,1010.50
2024-02-29T05:24:29.006Z,1010.47
2024-02-29T05:25:08.821Z,1010.50
2024-02-29T05:26:10.944Z,1010.49
2024-02-29T05:27:08.805Z,1010.50
2024-02-29T05:28:09.811Z,1010.53
2024-02-29T05:29:08.792Z,1010.54
2024-02-29T05:30:08.999Z,1010.52
2024-02-29T05:31:08.825Z,1010.49
2024-02-29T05:32:09.023Z,1010.48
2024-02-29T05:33:08.773Z,1010.55
2024-02-29T05:34:28.993Z,1010.42
2024-02-29T05:35:08.820Z,1010.47
2024-02-29T05:36:08.982Z,1010.54
2024-02-29T05:37:09.751Z,1010.52
2024-02-29T05:38:08.931Z,1010.51
2024-02-29T05:39:08.701Z,1010.47
2024-02-29T05:40:14.546Z,1010.51
2024-02-29T05:41:08.629Z,1010.43
2024-02-29T05:42:09.715Z,1010.42
2024-02-29T05:43:08.549Z,1010.41
2024-02-29T05:44:28.777Z,1010.38
2024-02-29T05:45:08.519Z,1010.37
2024-02-29T05:46:08.853Z,1010.39
2024-02-29T05:47:08.526Z,1010.32
2024-02-29T05:48:08.805Z,1010.43
2024-02-29T05:49:08.606Z,1010.36
2024-02-29T05:50:10.759Z,1010.34
2024-02-29T05:51:08.537Z,1010.33
2024-02-29T05:52:08.837Z,1010.28
2024-02-29T05:53:08.592Z,1010.31
2024-02-29T05:54:28.794Z,1010.27
2024-02-29T05:55:08.542Z,1010.28
2024-02-29T05:56:08.800Z,1010.30
2024-02-29T05:57:08.569Z,1010.28
2024-02-29T05:58:10.285Z,1010.25
2024-02-29T05:59:09.471Z,1010.25
2024-02-29T06:00:09.761Z,1010.21
2024-02-29T06:01:08.594Z,1010.27
2024-02-29T06:02:08.469Z,1010.23
2024-02-29T06:03:08.591Z,1010.14
2024-02-29T06:04:28.863Z,1010.16
2024-02-29T06:05:08.592Z,1010.24
2024-02-29T06:06:08.832Z,1010.16
2024-02-29T06:07:08.616Z,1010.14
2024-02-29T06:08:08.365Z,1010.15
2024-02-29T06:09:08.552Z,1010.18
2024-02-29T06:10:08.346Z,1010.15
2024-02-29T06:11:08.920Z,1010.15
2024-02-29T06:12:08.317Z,1010.16
2024-02-29T06:13:08.616Z,1010.14
2024-02-29T06:14:28.325Z,1010.14
2024-02-29T06:15:10.894Z,1010.17
2024-02-29T06:16:08.364Z,1010.10
2024-02-29T06:17:08.559Z,1010.15
2024-02-29T06:18:08.445Z,1010.09
2024-02-29T06:19:08.640Z,1010.11
2024-02-29T06:20:09.941Z,1010.08
2024-02-29T06:21:15.556Z,1010.09
2024-02-29T06:22:08.353Z,1010.07
2024-02-29T06:23:08.558Z,1010.06
2024-02-29T06:24:30.297Z,1010.03
2024-02-29T06:25:08.636Z,1010.01
2024-02-29T06:26:08.328Z,1010.00
2024-02-29T06:27:08.076Z,1010.02
2024-02-29T06:28:08.345Z,1010.00
2024-02-29T06:29:08.073Z,1009.97
2024-02-29T06:30:08.301Z,1009.96
2024-02-29T06:31:09.142Z,1009.94
2024-02-29T06:32:08.312Z,1009.88
2024-02-29T06:33:09.075Z,1009.94
2024-02-29T06:34:28.375Z,1009.95
2024-02-29T06:35:08.125Z,1009.92
2024-02-29T06:36:10.449Z,1009.92
2024-02-29T06:37:08.149Z,1009.97
2024-02-29T06:38:09.331Z,1009.93
2024-02-29T06:39:08.176Z,1009.99
2024-02-29T06:40:09.360Z,1009.90
2024-02-29T06:41:08.148Z,1009.98
2024-02-29T06:42:07.883Z,1009.98
2024-02-29T06:43:08.222Z,1009.96
2024-02-29T06:44:28.396Z,1010.03
2024-02-29T06:45:09.166Z,1009.99
2024-02-29T06:46:08.092Z,1009.94
2024-02-29T06:47:08.161Z,1009.95
2024-02-29T06:48:07.381Z,1009.94
2024-02-29T06:49:07.331Z,1009.96
2024-02-29T06:50:07.322Z,1009.93
2024-02-29T06:51:07.285Z,1009.88
2024-02-29T06:52:07.425Z,1009.93
2024-02-29T06:53:07.268Z,1009.86
2024-02-29T06:54:27.383Z,1009.81
2024-02-29T06:55:07.288Z,1009.88
2024-02-29T06:56:07.270Z,1009.85
2024-02-29T06:57:07.243Z,1009.85
2024-02-29T06:58:07.318Z,1009.88
2024-02-29T06:59:07.215Z,1009.88
2024-02-29T07:00:07.573Z,1009.88
2024-02-29T07:01:07.294Z,1009.88
2024-02-29T07:02:10.969Z,1009.84
2024-02-29T07:03:07.755Z,1009.90
2024-02-29T07:04:27.973Z,1009.85
2024-02-29T07:05:07.742Z,1009.93
2024-02-29T07:06:07.969Z,1009.89
2024-02-29T07:07:07.762Z,1009.96
2024-02-29T07:08:07.972Z,1009.91
2024-02-29T07:09:07.725Z,1009.85
2024-02-29T07:10:08.138Z,1009.91
2024-02-29T07:11:07.774Z,1009.88
2024-02-29T07:12:07.071Z,1009.87
2024-02-29T07:13:07.906Z,1009.85
2024-02-29T07:14:28.068Z,1009.85
2024-02-29T07:15:07.898Z,1009.83
2024-02-29T07:16:07.669Z,1009.84
2024-02-29T07:17:07.875Z,1009.85
2024-02-29T07:18:07.668Z,1009.79
2024-02-29T07:19:07.919Z,1009.81
2024-02-29T07:20:07.614Z,1009.79
2024-02-29T07:21:07.863Z,1009.79
2024-02-29T07:22:08.622Z,1009.83
2024-02-29T07:23:07.873Z,1009.76
2024-02-29T07:24:27.633Z,1009.78
2024-02-29T07:25:07.871Z,1009.76
2024-02-29T07:26:07.604Z,1009.79
2024-02-29T07:27:07.855Z,1009.76
2024-02-29T07:28:07.630Z,1009.72
2024-02-29T07:29:07.893Z,1009.71
2024-02-29T07:30:07.605Z,1009.66
2024-02-29T07:31:07.928Z,1009.66
2024-02-29T07:32:07.593Z,1009.67
2024-02-29T07:33:14.742Z,1009.62
2024-02-29T07:34:27.476Z,1009.63
2024-02-29T07:35:08.547Z,1009.60
2024-02-29T07:36:07.537Z,1009.61
2024-02-29T07:37:07.683Z,1009.57
2024-02-29T07:38:07.658Z,1009.56
2024-02-29T07:39:07.677Z,1009.57
2024-02-29T07:40:07.523Z,1009.59
2024-02-29T07:41:07.686Z,1009.59
2024-02-29T07:42:07.434Z,1009.59
2024-02-29T07:43:10.524Z,1009.57
2024-02-29T07:44:27.439Z,1009.58
2024-02-29T07:45:07.675Z,1009.58
2024-02-29T07:46:07.445Z,1009.58
2024-02-29T07:47:14.930Z,1009.62
2024-02-29T07:48:09.750Z,1009.56
2024-02-29T07:49:08.439Z,1009.65
2024-02-29T07:50:09.179Z,1009.61
2024-02-29T07:51:08.439Z,1009.59
2024-02-29T07:52:07.290Z,1009.59
2024-02-29T07:53:07.482Z,1009.55
2024-02-29T07:54:27.328Z,1009.49
2024-02-29T07:55:07.565Z,1009.57
2024-02-29T07:56:07.222Z,1009.54
2024-02-29T07:57:07.486Z,1009.55
2024-02-29T07:58:07.206Z,1009.54
2024-02-29T07:59:08.413Z,1009.48
2024-02-29T08:00:07.239Z,1009.52
2024-02-29T08:01:12.869Z,1009.51
2024-02-29T08:02:07.688Z,1009.54
2024-02-29T08:03:08.274Z,1009.52
2024-02-29T08:04:27.581Z,1009.52
2024-02-29T08:05:08.269Z,1009.53
2024-02-29T08:06:07.124Z,1009.52
2024-02-29T08:07:07.395Z,1009.51
2024-02-29T08:08:07.121Z,1009.53
2024-02-29T08:09:10.334Z,1009.48
2024-02-29T08:10:07.189Z,1009.42
2024-02-29T08:11:07.367Z,1009.45
2024-02-29T08:12:07.130Z,1009.43
2024-02-29T08:13:07.367Z,1009.42
2024-02-29T08:14:27.181Z,1009.42
2024-02-29T08:15:07.418Z,1009.44
2024-02-29T08:16:07.281Z,1009.43
2024-02-29T08:17:06.940Z,1009.43
2024-02-29T08:18:07.235Z,1009.42
2024-02-29T08:19:07.472Z,1009.41
2024-02-29T08:20:07.230Z,1009.39
2024-02-29T08:21:06.928Z,1009.36
2024-02-29T08:22:07.298Z,1009.29
2024-02-29T08:23:06.950Z,1009.24
2024-02-29T08:24:27.220Z,1009.24
2024-02-29T08:25:06.989Z,1009.22
2024-02-29T08:26:07.260Z,1009.27
2024-02-29T08:27:06.981Z,1009.26
2024-02-29T08:28:07.342Z,1009.24
2024-02-29T08:29:14.337Z,1009.23
2024-02-29T08:30:08.955Z,1009.26
2024-02-29T08:31:06.840Z,1009.21
2024-02-29T08:32:07.121Z,1009.24
2024-02-29T08:33:07.068Z,1009.22
2024-02-29T08:34:27.146Z,1009.16
2024-02-29T08:35:06.831Z,1009.19
2024-02-29T08:36:07.062Z,1009.14
2024-02-29T08:37:06.859Z,1009.16
2024-02-29T08:38:07.075Z,1009.14
2024-02-29T08:39:06.817Z,1009.12
2024-02-29T08:40:07.182Z,1009.17
2024-02-29T08:41:06.833Z,1009.11
2024-02-29T08:42:08.000Z,1009.08
2024-02-29T08:43:06.946Z,1009.05
2024-02-29T08:44:27.046Z,1009.09
2024-02-29T08:45:06.793Z,1009.07
2024-02-29T08:46:07.186Z,1009.04
2024-02-29T08:47:06.884Z,1009.10
2024-02-29T08:48:07.169Z,1009.06
2024-02-29T08:49:08.941Z,1009.07
2024-02-29T08:50:06.683Z,1009.03
2024-02-29T08:51:06.908Z,1009.09
2024-02-29T08:52:06.707Z,1009.06
2024-02-29T08:53:06.900Z,1009.05
2024-02-29T08:54:26.663Z,1009.04
2024-02-29T08:55:06.928Z,1009.07
2024-02-29T08:56:06.654Z,1009.02
2024-02-29T08:57:06.919Z,1009.01
2024-02-29T08:58:06.746Z,1009.05
2024-02-29T08:59:06.934Z,1009.05
2024-02-29T09:00:06.693Z,1009.05
2024-02-29T09:01:07.012Z,1008.99
2024-02-29T09:02:06.964Z,1009.01
2024-02-29T09:03:06.915Z,1008.98
2024-02-29T09:04:26.687Z,1009.05
2024-02-29T09:05:06.917Z,1008.96
2024-02-29T09:06:06.676Z,1008.96
2024-02-29T09:07:08.436Z,1008.97
2024-02-29T09:08:07.792Z,1008.95
2024-02-29T09:09:08.606Z,1008.93
2024-02-29T09:10:08.559Z,1008.91
2024-02-29T09:11:08.943Z,1008.89
2024-02-29T09:12:06.777Z,1008.88
2024-02-29T09:13:20.129Z,1008.79
2024-02-29T09:14:27.832Z,1008.80
2024-02-29T09:15:08.155Z,1008.81
2024-02-29T09:16:07.478Z,1008.84
2024-02-29T09:17:08.248Z,1008.91
2024-02-29T09:18:07.584Z,1008.85
2024-02-29T09:19:08.481Z,1008.80
2024-02-29T09:20:08.312Z,1008.78
2024-02-29T09:21:08.790Z,1008.86
2024-02-29T09:22:07.661Z,1008.78
2024-02-29T09:23:07.368Z,1008.76
2024-02-29T09:24:26.720Z,1008.80
2024-02-29T09:25:08.486Z,1008.75
2024-02-29T09:26:07.265Z,1008.70
2024-02-29T09:27:08.559Z,1008.75
2024-02-29T09:28:08.391Z,1008.69
2024-02-29T09:29:07.683Z,1008.71
2024-02-29T09:30:07.325Z,1008.68
2024-02-29T09:31:08.365Z,1008.70
2024-02-29T09:32:09.151Z,1008.68
2024-02-29T09:33:08.437Z,1008.65
2024-02-29T09:34:36.457Z,1008.63
2024-02-29T09:35:07.323Z,1008.55
2024-02-29T09:36:07.532Z,1008.52
2024-02-29T09:37:07.403Z,1008.52
2024-02-29T09:38:08.170Z,1008.53
2024-02-29T09:39:07.448Z,1008.46
2024-02-29T09:40:08.396Z,1008.45
2024-02-29T09:41:18.619Z,1008.45
2024-02-29T09:42:13.576Z,1008.46
2024-02-29T09:43:07.265Z,1008.46
2024-02-29T09:44:26.516Z,1008.41
2024-02-29T09:45:08.233Z,1008.40
2024-02-29T09:46:07.602Z,1008.41
2024-02-29T09:47:07.348Z,1008.41
2024-02-29T09:48:08.144Z,1008.45
2024-02-29T09:49:06.624Z,1008.40
2024-02-29T09:50:07.250Z,1008.39
2024-02-29T09:51:07.709Z,1008.38
2024-02-29T09:52:06.843Z,1008.38
2024-02-29T09:53:07.870Z,1008.36
2024-02-29T09:54:26.206Z,1008.40
2024-02-29T09:55:06.422Z,1008.38
2024-02-29T09:56:07.302Z,1008.36
2024-02-29T09:57:10.619Z,1008.36
2024-02-29T09:58:06.869Z,1008.36
2024-02-29T09:59:07.278Z,1008.38
2024-02-29T10:00:08.061Z,1008.37
2024-02-29T10:01:07.940Z,1008.34
2024-02-29T10:02:08.248Z,1008.34
2024-02-29T10:03:07.046Z,1008.35
2024-02-29T10:04:26.374Z,1008.34
2024-02-29T10:05:08.062Z,1008.35
2024-02-29T10:06:07.922Z,1008.33
2024-02-29T10:07:08.216Z,1008.38
2024-02-29T10:08:08.006Z,1008.34
2024-02-29T10:09:06.562Z,1008.32
2024-02-29T10:10:07.534Z,1008.34
2024-02-29T10:11:06.761Z,1008.35
2024-02-29T10:12:07.997Z,1008.37
2024-02-29T10:13:07.817Z,1008.31
2024-02-29T10:14:26.167Z,1008.29
2024-02-29T10:15:07.872Z,1008.30
2024-02-29T10:16:08.173Z,1008.29
2024-02-29T10:17:07.482Z,1008.24
2024-02-29T10:18:08.772Z,1008.27
2024-02-29T10:19:08.092Z,1008.24
2024-02-29T10:20:08.328Z,1008.21
2024-02-29T10:21:07.653Z,1008.26
2024-02-29T10:22:07.027Z,1008.21
2024-02-29T10:23:06.842Z,1008.21
2024-02-29T10:24:25.658Z,1008.22
2024-02-29T10:25:07.946Z,1008.16
2024-02-29T10:26:06.356Z,1008.18
2024-02-29T10:27:08.045Z,1008.18
2024-02-29T10:28:08.483Z,1008.16
2024-02-29T10:29:07.737Z,1008.14
2024-02-29T10:30:07.174Z,1008.18
2024-02-29T10:31:07.000Z,1008.13
2024-02-29T10:32:06.796Z,1008.13
2024-02-29T10:33:07.666Z,1008.15
2024-02-29T10:34:26.133Z,1008.07
2024-02-29T10:35:07.255Z,1008.07
2024-02-29T10:36:07.534Z,1008.12
2024-02-29T10:37:06.482Z,1008.08
2024-02-29T10:38:06.718Z,1008.06
2024-02-29T10:39:06.584Z,1008.07
2024-02-29T10:40:08.690Z,1008.10
2024-02-29T10:41:07.731Z,1008.08
2024-02-29T10:42:07.536Z,1008.04
2024-02-29T10:43:07.911Z,1008.01
2024-02-29T10:44:25.705Z,1008.04
2024-02-29T10:45:07.483Z,1007.98
2024-02-29T10:46:07.832Z,1007.97
2024-02-29T10:47:07.612Z,1008.02
2024-02-29T10:48:06.454Z,1007.97
2024-02-29T10:49:07.737Z,1008.01
2024-02-29T10:50:06.337Z,1007.95
2024-02-29T10:51:06.396Z,1007.96
2024-02-29T10:52:06.716Z,1007.99
2024-02-29T10:53:09.831Z,1008.04
2024-02-29T10:54:25.642Z,1007.92
2024-02-29T10:55:07.227Z,1007.97
2024-02-29T10:56:07.718Z,1007.95
2024-02-29T10:57:07.566Z,1007.94
2024-02-29T10:58:07.553Z,1007.94
2024-02-29T10:59:07.344Z,1007.92
2024-02-29T11:00:07.157Z,1007.97
2024-02-29T11:01:06.420Z,1007.95
2024-02-29T11:02:07.370Z,1007.92
2024-02-29T11:03:07.608Z,1007.95
2024-02-29T11:04:25.511Z,1007.94
2024-02-29T11:05:07.663Z,1007.94
2024-02-29T11:06:06.240Z,1007.91
2024-02-29T11:07:07.177Z,1007.93
2024-02-29T11:08:06.006Z,1007.90
2024-02-29T11:09:07.539Z,1007.90
2024-02-29T11:10:07.458Z,1007.82
2024-02-29T11:11:06.226Z,1007.82
2024-02-29T11:12:05.867Z,1007.84
2024-02-29T11:13:07.422Z,1007.80
2024-02-29T11:14:26.590Z,1007.78
2024-02-29T11:15:07.417Z,1007.82
2024-02-29T11:16:07.300Z,1007.79
2024-02-29T11:17:07.083Z,1007.78
2024-02-29T11:18:06.462Z,1007.75
2024-02-29T11:19:06.264Z,1007.78
2024-02-29T11:20:06.054Z,1007.74
2024-02-29T11:21:06.450Z,1007.74
2024-02-29T11:22:07.045Z,1007.72
2024-02-29T11:23:10.947Z,1007.72
2024-02-29T11:24:26.437Z,1007.73
2024-02-29T11:25:06.713Z,1007.69
2024-02-29T11:26:07.486Z,1007.66
2024-02-29T11:27:07.234Z,1007.66
2024-02-29T11:28:07.057Z,1007.65
2024-02-29T11:29:07.482Z,1007.62
2024-02-29T11:30:06.278Z,1007.60
2024-02-29T11:31:06.155Z,1007.61
2024-02-29T11:32:08.894Z,1007.59
2024-02-29T11:33:06.834Z,1007.61
2024-02-29T11:34:25.226Z,1007.61
2024-02-29T11:35:05.858Z,1007.61
2024-02-29T11:36:05.884Z,1007.50
2024-02-29T11:37:07.122Z,1007.53
2024-02-29T11:38:06.862Z,1007.43
2024-02-29T11:39:07.191Z,1007.43
2024-02-29T11:40:07.225Z,1007.42
2024-02-29T11:41:04.863Z,1007.40
2024-02-29T11:42:05.131Z,1007.38
2024-02-29T11:43:04.897Z,1007.34
2024-02-29T11:44:26.338Z,1007.35
2024-02-29T11:45:05.016Z,1007.39
2024-02-29T11:46:06.849Z,1007.39
2024-02-29T11:47:05.063Z,1007.33
2024-02-29T11:48:04.946Z,1007.35
2024-02-29T11:49:05.080Z,1007.34
2024-02-29T11:50:04.840Z,1007.33
2024-02-29T11:51:05.095Z,1007.33
2024-02-29T11:52:05.938Z,1007.28
2024-02-29T11:53:07.557Z,1007.27
2024-02-29T11:54:27.115Z,1007.23
2024-02-29T11:55:06.701Z,1007.24
2024-02-29T11:56:15.193Z,1007.25
2024-02-29T11:57:07.712Z,1007.24
2024-02-29T11:58:07.009Z,1007.27
2024-02-29T11:59:06.779Z,1007.25
2024-02-29T12:00:07.007Z,1007.27
2024-02-29T12:01:05.659Z,1007.30
2024-02-29T12:02:06.479Z,1007.21
2024-02-29T12:03:06.420Z,1007.22
2024-02-29T12:04:26.845Z,1007.25
2024-02-29T12:05:05.096Z,1007.20
2024-02-29T12:06:05.790Z,1007.19
2024-02-29T12:07:06.608Z,1007.19